Time;durP1;ratioP1;P1;durP2;ratioP2;P2;SDS_P1;SDS_P2;PMS_P1;PMS_P2;Temp;Humidity;BMP_temperature;BMP_pressure;BME280_temperature;BME280_humidity;BME280_pressure;Samples;Min_cycle;Max_cycle;Signal;HPM_P1;HPM_P2
2022/07/07 00:00:07;;;;;;;;;;;;;;;14.29;56.21;97497.25;30001;982;1871;-57
2022/07/07 00:00:38;;;;;;;;;;;;;;;14.29;56.05;97497.25;30001;982;1884;-56
2022/07/07 00:01:09;;;;;;;;;;;;;;;14.31;55.99;97498.59;30001;982;1881;-56
2022/07/07 00:01:40;;;;;;;;;;;;;;;14.31;56.10;97495.84;30001;983;1884;-56
2022/07/07 00:02:11;;;;;;;;;;;;;;;14.32;55.80;97493.94;30001;983;1879;-56
2022/07/07 00:02:42;;;;;;;;;;;;;;;14.34;56.14;97492.53;30001;985;1884;-57
2022/07/07 00:03:13;;;;;;;;;;;;;;;14.34;55.81;97497.97;30001;983;1879;-56
2022/07/07 00:03:44;;;;;;;;;;;;;;;14.35;56.02;97496.06;30001;983;1884;-56
2022/07/07 00:04:15;;;;;;;;;;;;;;;14.35;55.84;97494.16;30001;983;1880;-71
2022/07/07 00:04:46;;;;;;;;;;;;;;;14.37;55.61;97491.09;30001;983;1871;-56
2022/07/07 00:05:17;;;;;;;;;;;;;;;14.38;55.51;97490.00;30001;983;1871;-71
2022/07/07 00:05:48;;;;;;;;;;;;;;;14.39;56.30;97489.69;30001;983;1884;-56
2022/07/07 00:06:19;;;;;;;;;;;;;;;14.40;55.83;97487.78;30001;983;1784;-56
2022/07/07 00:06:50;;;;;;;;;;;;;;;14.41;55.95;97492.97;30001;982;1884;-56
2022/07/07 00:07:21;;;;;;;;;;;;;;;14.40;56.00;97493.25;30001;982;1880;-56
2022/07/07 00:07:52;;;;;;;;;;;;;;;14.40;56.36;97501.44;30001;982;1885;-57
2022/07/07 00:08:23;;;;;;;;;;;;;;;14.38;56.16;97490.81;30001;982;1880;-55
2022/07/07 00:08:54;;;;;;;;;;;;;;;14.38;56.33;97495.47;30001;982;1885;-56
2022/07/07 00:09:26;;;;;;;;;;;;;;;14.39;56.60;97488.88;30001;983;1879;-56
2022/07/07 00:09:56;;;;;;;;;;;;;;;14.37;56.78;97494.66;30001;983;1871;-57
2022/07/07 00:10:28;;;;;;;;;;;;;;;14.36;56.47;97490.31;30001;983;1871;-56
2022/07/07 00:10:59;;;;;;;;;;;;;;;14.33;56.87;97501.00;30001;983;1885;-56
2022/07/07 00:11:30;;;;;;;;;;;;;;;14.30;56.90;97493.44;30001;983;1880;-56
2022/07/07 00:12:02;;;;;;;;;;;;;;;14.29;56.40;97489.06;30001;983;1836;-57
2022/07/07 00:12:33;;;;;;;;;;;;;;;14.30;56.08;97490.69;30001;983;1880;-55
2022/07/07 00:13:04;;;;;;;;;;;;;;;14.31;56.58;97495.03;30001;983;1884;-56
2022/07/07 00:13:35;;;;;;;;;;;;;;;14.30;56.84;97485.25;30001;983;1867;-56
2022/07/07 00:14:09;;;;;;;;;;;;;;;14.32;56.40;97493.94;30001;983;1876;-56
2022/07/07 00:14:40;;;;;;;;;;;;;;;14.33;56.10;97487.38;30001;982;1880;-57
2022/07/07 00:15:11;;;;;;;;;;;;;;;14.35;56.02;97493.34;30001;982;1885;-56
2022/07/07 00:15:45;;;;;;;;;;;;;;;14.35;55.85;97483.22;30001;982;1873;-57
2022/07/07 00:16:17;;;;;;;;;;;;;;;14.36;55.84;97489.50;30001;978;1884;-55
2022/07/07 00:16:48;;;;;;;;;;;;;;;14.38;56.04;97492.72;30001;983;1871;-57
2022/07/07 00:17:19;;;;;;;;;;;;;;;14.37;56.02;97491.09;30001;983;1884;-56
2022/07/07 00:17:51;;;;;;;;;;;;;;;14.37;55.79;97491.09;30001;983;1880;-56
2022/07/07 00:18:21;;;;;;;;;;;;;;;14.37;56.33;97485.66;30001;983;1884;-57
2022/07/07 00:18:53;;;;;;;;;;;;;;;14.37;56.16;97491.09;30001;983;1866;-56
2022/07/07 00:19:24;;;;;;;;;;;;;;;14.36;56.02;97489.50;30001;983;1875;-57
2022/07/07 00:19:54;;;;;;;;;;;;;;;14.35;55.86;97485.13;30001;983;1880;-56
2022/07/07 00:20:26;;;;;;;;;;;;;;;14.34;56.16;97488.97;30001;961;1906;-56
2022/07/07 00:20:56;;;;;;;;;;;;;;;14.34;55.69;97481.59;30001;982;1880;-56
2022/07/07 00:21:28;;;;;;;;;;;;;;;14.35;55.74;97487.88;30001;982;1884;-56
2022/07/07 00:21:59;;;;;;;;;;;;;;;14.37;55.37;97491.09;30001;982;1880;-57
2022/07/07 00:22:29;;;;;;;;;;;;;;;14.37;55.21;97489.19;30001;982;1884;-56
2022/07/07 00:23:00;;;;;;;;;;;;;;;14.36;56.16;97484.84;30001;982;1868;-57
2022/07/07 00:23:31;;;;;;;;;;;;;;;14.36;56.18;97492.22;30001;982;1876;-56
2022/07/07 00:24:03;;;;;;;;;;;;;;;14.33;55.71;97484.63;30001;982;1880;-56
2022/07/07 00:24:34;;;;;;;;;;;;;;;14.33;56.13;97492.81;30001;983;1884;-56
2022/07/07 00:25:06;;;;;;;;;;;;;;;14.33;56.90;97498.28;30001;983;1879;-56
2022/07/07 00:25:37;;;;;;;;;;;;;;;14.32;56.84;97494.75;30001;983;1884;-56
2022/07/07 00:26:09;;;;;;;;;;;;;;;14.31;56.45;97492.31;30001;983;1880;-57
2022/07/07 00:26:39;;;;;;;;;;;;;;;14.31;56.67;97492.31;30001;983;1884;-56
2022/07/07 00:27:11;;;;;;;;;;;;;;;14.31;56.33;97492.31;30001;983;1880;-56
2022/07/07 00:27:41;;;;;;;;;;;;;;;14.34;56.36;97491.72;30001;983;1885;-57
2022/07/07 00:28:12;;;;;;;;;;;;;;;14.34;56.19;97489.78;30001;983;1867;-56
2022/07/07 00:28:43;;;;;;;;;;;;;;;14.34;56.74;97492.53;30001;982;1876;-57
2022/07/07 00:29:14;;;;;;;;;;;;;;;14.30;56.84;97494.22;30001;982;1880;-58
2022/07/07 00:29:45;;;;;;;;;;;;;;;14.29;57.37;97498.06;30001;964;1817;-56
2022/07/07 00:30:16;;;;;;;;;;;;;;;14.29;57.21;97497.25;30001;982;1867;-56
2022/07/07 00:30:47;;;;;;;;;;;;;;;14.28;58.08;97501.09;30001;982;1876;-57
2022/07/07 00:31:18;;;;;;;;;;;;;;;14.28;57.44;97503.84;30001;982;1880;-56
2022/07/07 00:31:49;;;;;;;;;;;;;;;14.28;57.59;97503.84;30001;983;1884;-57
2022/07/07 00:32:20;;;;;;;;;;;;;;;14.28;57.78;97503.84;30001;971;1770;-56
2022/07/07 00:32:51;;;;;;;;;;;;;;;14.29;57.26;97500.00;30001;983;1875;-56
2022/07/07 00:33:22;;;;;;;;;;;;;;;14.29;56.99;97494.53;30001;983;1880;-57
2022/07/07 00:33:53;;;;;;;;;;;;;;;14.29;56.83;97497.25;30001;983;1885;-71
2022/07/07 00:34:23;;;;;;;;;;;;;;;14.30;56.46;97496.97;30001;983;1880;-57
2022/07/07 00:34:54;;;;;;;;;;;;;;;14.32;56.73;97496.66;30001;983;1871;-57
2022/07/07 00:35:25;;;;;;;;;;;;;;;14.33;57.02;97495.56;30001;983;1871;-57
2022/07/07 00:35:56;;;;;;;;;;;;;;;14.32;56.45;97493.94;30001;983;1857;-57
2022/07/07 00:36:27;;;;;;;;;;;;;;;14.31;56.57;97486.84;30001;982;1880;-56
2022/07/07 00:37:01;;;;;;;;;;;;;;;14.30;57.04;97491.50;30001;982;1884;-56
2022/07/07 00:37:32;;;;;;;;;;;;;;;14.32;56.56;97491.19;30001;982;1880;-56
2022/07/07 00:38:03;;;;;;;;;;;;;;;14.33;57.66;97495.56;30001;982;1885;-56
2022/07/07 00:38:34;;;;;;;;;;;;;;;14.32;57.20;97489.28;30001;982;1867;-57
2022/07/07 00:39:06;;;;;;;;;;;;;;;14.32;57.31;97491.19;30001;982;1876;-57
2022/07/07 00:39:37;;;;;;;;;;;;;;;14.31;57.09;97486.84;30001;983;1879;-56
2022/07/07 00:40:09;;;;;;;;;;;;;;;14.30;57.70;97491.50;30001;983;1871;-56
2022/07/07 00:40:43;;;;;;;;;;;;;;;14.31;57.57;97492.31;30001;983;1829;-57
2022/07/07 00:41:15;;;;;;;;;;;;;;;14.32;57.83;97492.00;30001;983;1884;-56
2022/07/07 00:41:46;;;;;;;;;;;;;;;14.33;57.50;97490.09;30001;983;1866;-57
2022/07/07 00:42:17;;;;;;;;;;;;;;;14.31;57.52;97489.59;30001;983;1875;-56
2022/07/07 00:42:48;;;;;;;;;;;;;;;14.27;57.35;97491.28;30001;983;1880;-56
2022/07/07 00:43:19;;;;;;;;;;;;;;;14.26;57.59;97495.94;30001;983;1884;-71
2022/07/07 00:43:50;;;;;;;;;;;;;;;14.26;57.39;97495.13;30001;982;1867;-56
2022/07/07 00:44:22;;;;;;;;;;;;;;;14.26;57.48;97487.75;30001;982;1778;-56
2022/07/07 00:44:53;;;;;;;;;;;;;;;14.28;57.10;97484.72;30001;982;1880;-57
2022/07/07 00:45:24;;;;;;;;;;;;;;;14.27;56.47;97483.09;30001;972;1895;-56
2022/07/07 00:45:55;;;;;;;;;;;;;;;14.28;56.72;97487.44;30001;982;1880;-56
2022/07/07 00:46:30;;;;;;;;;;;;;;;14.28;57.18;97492.91;30001;982;1885;-57
2022/07/07 00:47:01;;;;;;;;;;;;;;;14.29;57.47;97494.53;30001;983;1879;-56
2022/07/07 00:47:32;;;;;;;;;;;;;;;14.30;57.48;97487.97;30001;983;1884;-56
2022/07/07 00:48:04;;;;;;;;;;;;;;;14.31;57.12;97489.59;30001;983;1880;-56
2022/07/07 00:48:36;;;;;;;;;;;;;;;14.31;57.12;97484.13;30001;983;1871;-56
2022/07/07 00:49:08;;;;;;;;;;;;;;;14.32;57.20;97488.47;30001;983;1871;-56
2022/07/07 00:49:42;;;;;;;;;;;;;;;14.34;57.00;97480.78;30001;983;1884;-73
2022/07/07 00:50:13;;;;;;;;;;;;;;;14.34;57.03;97483.53;30001;983;1880;-57
2022/07/07 00:50:45;;;;;;;;;;;;;;;14.37;56.94;97485.66;30001;983;1885;-56
2022/07/07 00:51:16;;;;;;;;;;;;;;;14.38;56.70;97476.34;30001;982;1880;-57
2022/07/07 00:51:48;;;;;;;;;;;;;;;14.39;56.58;97477.97;30001;982;1884;-57
2022/07/07 00:52:21;;;;;;;;;;;;;;;14.40;56.59;97485.03;30001;961;1902;-57
2022/07/07 00:52:54;;;;;;;;;;;;;;;14.37;56.50;97477.47;30001;982;1820;-57
2022/07/07 00:53:25;;;;;;;;;;;;;;;14.36;56.25;97479.38;30001;982;1880;-56
2022/07/07 00:53:56;;;;;;;;;;;;;;;14.37;56.40;97480.19;30001;983;1871;-56
2022/07/07 00:54:27;;;;;;;;;;;;;;;14.39;55.34;97475.25;30001;983;1871;-56
2022/07/07 00:55:00;;;;;;;;;;;;;;;14.42;55.72;97477.41;30001;983;1884;-56
2022/07/07 00:55:30;;;;;;;;;;;;;;;14.44;56.06;97474.38;30001;983;1880;-56
2022/07/07 00:56:01;;;;;;;;;;;;;;;14.45;56.33;97463.13;30001;983;1884;-56
2022/07/07 00:56:33;;;;;;;;;;;;;;;14.45;56.48;97479.53;30001;983;1867;-56
2022/07/07 00:57:05;;;;;;;;;;;;;;;14.46;56.40;97472.94;30001;983;1875;-58
2022/07/07 00:57:36;;;;;;;;;;;;;;;14.48;56.46;97478.09;30001;983;1880;-57
2022/07/07 00:58:07;;;;;;;;;;;;;;;14.48;56.47;97468.00;30001;983;1884;-56
2022/07/07 00:58:38;;;;;;;;;;;;;;;14.50;56.11;97468.50;30001;983;1880;-56
2022/07/07 00:59:13;;;;;;;;;;;;;;;14.51;56.44;97466.59;30001;982;1884;-56
2022/07/07 00:59:44;;;;;;;;;;;;;;;14.51;55.97;97463.84;30001;982;1880;-56
2022/07/07 01:00:15;;;;;;;;;;;;;;;14.52;56.26;97466.28;30001;982;1884;-57
2022/07/07 01:00:47;;;;;;;;;;;;;;;14.53;55.91;97461.63;30001;982;1881;-56
2022/07/07 01:01:18;;;;;;;;;;;;;;;14.54;56.00;97466.78;30001;983;1884;-56
2022/07/07 01:01:49;;;;;;;;;;;;;;;14.55;56.07;97453.94;30001;978;1866;-71
2022/07/07 01:02:19;;;;;;;;;;;;;;;14.56;56.01;97461.00;30001;983;1875;-57
2022/07/07 01:02:51;;;;;;;;;;;;;;;14.56;55.89;97456.34;30001;983;1879;-57
2022/07/07 01:03:21;;;;;;;;;;;;;;;14.59;55.67;97461.19;30001;983;1884;-56
2022/07/07 01:03:52;;;;;;;;;;;;;;;14.59;55.61;97458.47;30001;983;1879;-56
2022/07/07 01:04:23;;;;;;;;;;;;;;;14.63;55.71;97462.19;30001;983;1884;-57
2022/07/07 01:04:54;;;;;;;;;;;;;;;14.62;55.62;97455.13;30001;983;1880;-56
2022/07/07 01:05:26;;;;;;;;;;;;;;;14.64;55.91;97458.38;30001;983;1884;-56
2022/07/07 01:05:57;;;;;;;;;;;;;;;14.62;55.56;97455.13;30001;983;1880;-72
2022/07/07 01:06:29;;;;;;;;;;;;;;;14.62;55.70;97457.84;30001;982;1885;-57
2022/07/07 01:07:01;;;;;;;;;;;;;;;14.63;55.78;97455.94;30001;982;1759;-56
2022/07/07 01:07:32;;;;;;;;;;;;;;;14.65;55.58;97457.25;30001;982;1876;-55
2022/07/07 01:08:04;;;;;;;;;;;;;;;14.67;55.74;97460.50;30001;982;1880;-56
2022/07/07 01:08:35;;;;;;;;;;;;;;;14.69;55.23;97454.72;30001;982;1884;-56
2022/07/07 01:09:06;;;;;;;;;;;;;;;14.70;54.70;97454.41;30001;983;1879;-56
2022/07/07 01:09:39;;;;;;;;;;;;;;;14.72;55.24;97454.09;30001;983;1871;-55
2022/07/07 01:10:10;;;;;;;;;;;;;;;14.71;54.46;97453.31;30001;983;1871;-57
2022/07/07 01:10:41;;;;;;;;;;;;;;;14.71;55.12;97453.31;30001;983;1884;-56
2022/07/07 01:11:12;;;;;;;;;;;;;;;14.71;55.07;97453.31;30001;983;1880;-57
2022/07/07 01:11:53;;;;;;;;;;;;;;;14.73;54.81;97453.81;30001;983;1884;-56
2022/07/07 01:12:24;;;;;;;;;;;;;;;14.75;54.57;97450.78;30001;983;1879;-57
2022/07/07 01:12:55;;;;;;;;;;;;;;;14.77;54.84;97453.19;30001;983;1884;-57
2022/07/07 01:13:26;;;;;;;;;;;;;;;14.77;54.87;97450.47;30001;982;1880;-56
2022/07/07 01:13:57;;;;;;;;;;;;;;;14.78;54.61;97452.88;30001;982;1884;-56
2022/07/07 01:14:29;;;;;;;;;;;;;;;14.79;54.98;97454.50;30001;982;1867;-56
2022/07/07 01:15:00;;;;;;;;;;;;;;;14.80;54.76;97452.59;30001;982;1876;-56
2022/07/07 01:15:32;;;;;;;;;;;;;;;14.81;53.76;97446.00;30001;982;1880;-56
2022/07/07 01:16:03;;;;;;;;;;;;;;;14.80;54.36;97447.13;30001;982;1884;-57
2022/07/07 01:16:35;;;;;;;;;;;;;;;14.80;54.44;97447.13;30001;983;1879;-57
2022/07/07 01:17:06;;;;;;;;;;;;;;;14.81;54.46;97451.47;30001;983;1884;-56
2022/07/07 01:17:37;;;;;;;;;;;;;;;14.82;54.74;97447.63;30001;983;1866;-56
2022/07/07 01:18:08;;;;;;;;;;;;;;;14.82;54.83;97445.72;30001;983;1875;-56
2022/07/07 01:18:39;;;;;;;;;;;;;;;14.82;54.91;97447.63;30001;972;1870;-56
2022/07/07 01:19:10;;;;;;;;;;;;;;;14.82;54.91;97447.63;30001;983;1884;-56
2022/07/07 01:19:41;;;;;;;;;;;;;;;14.82;54.90;97447.63;30001;983;1880;-56
2022/07/07 01:20:13;;;;;;;;;;;;;;;14.82;55.30;97451.16;30001;983;1884;-56
2022/07/07 01:20:46;;;;;;;;;;;;;;;14.81;55.28;97448.75;30001;982;1880;-56
2022/07/07 01:21:18;;;;;;;;;;;;;;;14.82;55.16;97447.63;30001;982;1884;-57
2022/07/07 01:21:54;;;;;;;;;;;;;;;14.81;55.29;97452.28;30001;982;1867;-55
2022/07/07 01:22:27;;;;;;;;;;;;;;;14.82;55.53;97447.63;30001;982;1876;-55
2022/07/07 01:22:58;;;;;;;;;;;;;;;14.81;55.13;97452.28;30001;982;1880;-56
2022/07/07 01:23:29;;;;;;;;;;;;;;;14.82;55.24;97447.63;30001;982;1871;-57
2022/07/07 01:24:00;;;;;;;;;;;;;;;14.80;54.67;97445.19;30001;983;1870;-56
2022/07/07 01:24:32;;;;;;;;;;;;;;;14.80;54.62;97444.38;30001;983;1884;-58
2022/07/07 01:25:04;;;;;;;;;;;;;;;14.80;54.71;97444.38;30001;983;1879;-56
2022/07/07 01:25:39;;;;;;;;;;;;;;;14.81;54.74;97446.00;30001;983;1884;-57
2022/07/07 01:26:10;;;;;;;;;;;;;;;14.80;54.77;97444.38;30001;983;1880;-57
2022/07/07 01:26:40;;;;;;;;;;;;;;;14.80;54.61;97444.38;30001;983;1884;-57
2022/07/07 01:27:15;;;;;;;;;;;;;;;14.80;54.75;97447.94;30001;983;1880;-56
2022/07/07 01:27:47;;;;;;;;;;;;;;;14.80;54.57;97444.38;30001;983;1884;-56
2022/07/07 01:28:17;;;;;;;;;;;;;;;14.81;54.66;97440.53;30001;982;1774;-56
2022/07/07 01:28:48;;;;;;;;;;;;;;;14.81;54.02;97437.81;30001;982;1875;-56
2022/07/07 01:29:19;;;;;;;;;;;;;;;14.80;54.29;97439.75;30001;982;1880;-56
2022/07/07 01:29:51;;;;;;;;;;;;;;;14.82;54.41;97436.69;30001;982;1885;-56
2022/07/07 01:30:22;;;;;;;;;;;;;;;14.82;54.57;97442.16;30001;982;1867;-56
2022/07/07 01:30:53;;;;;;;;;;;;;;;14.85;54.47;97447.00;30001;982;1876;-56
2022/07/07 01:31:24;;;;;;;;;;;;;;;14.85;54.57;97450.56;30001;983;1879;-56
2022/07/07 01:31:58;;;;;;;;;;;;;;;14.85;54.44;97441.56;30001;983;1884;-56
2022/07/07 01:32:29;;;;;;;;;;;;;;;14.87;54.52;97442.06;30001;983;1879;-56
2022/07/07 01:33:00;;;;;;;;;;;;;;;14.86;54.83;97443.16;30001;983;1884;-56
2022/07/07 01:33:31;;;;;;;;;;;;;;;14.85;54.56;97439.63;30001;983;1879;-56
2022/07/07 01:34:02;;;;;;;;;;;;;;;14.87;54.69;97445.59;30001;983;1884;-56
2022/07/07 01:34:33;;;;;;;;;;;;;;;14.87;54.39;97440.13;30001;983;1880;-57
2022/07/07 01:35:05;;;;;;;;;;;;;;;14.87;54.55;97439.31;30001;983;1871;-56
2022/07/07 01:35:36;;;;;;;;;;;;;;;14.87;54.38;97431.94;30001;982;1871;-56
2022/07/07 01:36:11;;;;;;;;;;;;;;;14.87;54.42;97439.31;30001;982;1884;-56
2022/07/07 01:36:42;;;;;;;;;;;;;;;14.87;54.32;97433.88;30001;982;1880;-57
2022/07/07 01:37:13;;;;;;;;;;;;;;;14.86;54.48;97434.97;30001;982;1884;-56
2022/07/07 01:37:48;;;;;;;;;;;;;;;14.87;54.54;97428.41;30001;982;1880;-56
2022/07/07 01:38:18;;;;;;;;;;;;;;;14.88;54.71;97435.47;30001;982;1884;-55
2022/07/07 01:38:49;;;;;;;;;;;;;;;14.88;54.58;97430.00;30001;982;1880;-56
2022/07/07 01:39:20;;;;;;;;;;;;;;;14.89;54.44;97431.63;30001;983;1870;-56
2022/07/07 01:39:52;;;;;;;;;;;;;;;14.88;54.57;97433.56;30001;983;1871;-57
2022/07/07 01:40:26;;;;;;;;;;;;;;;14.88;54.77;97430.81;30001;983;1884;-55
2022/07/07 01:40:57;;;;;;;;;;;;;;;14.88;54.78;97430.00;30001;987;1880;-55
2022/07/07 01:41:28;;;;;;;;;;;;;;;14.89;54.75;97426.16;30001;986;1884;-72
2022/07/07 01:41:59;;;;;;;;;;;;;;;14.89;54.73;97421.50;30001;983;1880;-58
2022/07/07 01:42:30;;;;;;;;;;;;;;;14.89;54.94;97426.16;30001;983;1884;-55
2022/07/07 01:43:01;;;;;;;;;;;;;;;14.87;55.10;97415.53;30001;983;1866;-57
2022/07/07 01:43:32;;;;;;;;;;;;;;;14.88;55.15;97424.53;30001;960;1884;-56
2022/07/07 01:44:03;;;;;;;;;;;;;;;14.87;55.04;97421.00;30001;982;1880;-55
2022/07/07 01:44:35;;;;;;;;;;;;;;;14.85;55.24;97416.97;30001;982;1884;-57
2022/07/07 01:45:07;;;;;;;;;;;;;;;14.86;55.10;97421.31;30001;982;1880;-58
2022/07/07 01:45:37;;;;;;;;;;;;;;;14.86;55.18;97426.78;30001;982;1884;-55
2022/07/07 01:46:08;;;;;;;;;;;;;;;14.87;55.00;97422.94;30001;967;1858;-56
2022/07/07 01:46:39;;;;;;;;;;;;;;;14.87;55.78;97428.41;30001;983;1884;-55
2022/07/07 01:47:13;;;;;;;;;;;;;;;14.85;54.53;97420.50;30001;983;1879;-55
2022/07/07 01:47:44;;;;;;;;;;;;;;;14.85;53.93;97419.69;30001;983;1884;-57
2022/07/07 01:48:18;;;;;;;;;;;;;;;14.85;54.32;97419.69;30001;983;1879;-56
2022/07/07 01:48:50;;;;;;;;;;;;;;;14.84;54.32;97424.34;30001;983;1871;-55
2022/07/07 01:49:20;;;;;;;;;;;;;;;14.85;54.15;97422.44;30001;983;1871;-56
2022/07/07 01:49:51;;;;;;;;;;;;;;;14.86;54.31;97424.03;30001;983;1884;-55
2022/07/07 01:50:23;;;;;;;;;;;;;;;14.86;54.29;97426.78;30001;983;1879;-56
2022/07/07 01:50:53;;;;;;;;;;;;;;;14.87;54.49;97422.94;30001;982;1884;-56
2022/07/07 01:51:24;;;;;;;;;;;;;;;14.88;54.72;97430.00;30001;982;1880;-56
2022/07/07 01:51:56;;;;;;;;;;;;;;;14.88;54.62;97427.28;30001;982;1884;-55
2022/07/07 01:52:26;;;;;;;;;;;;;;;14.88;54.70;97427.28;30001;982;1867;-55
2022/07/07 01:52:58;;;;;;;;;;;;;;;14.89;54.54;97426.16;30001;976;1894;-71
2022/07/07 01:53:29;;;;;;;;;;;;;;;14.90;54.45;97428.56;30001;983;1879;-56
2022/07/07 01:53:59;;;;;;;;;;;;;;;14.90;54.81;97420.38;30001;983;1883;-55
2022/07/07 01:54:31;;;;;;;;;;;;;;;14.92;54.97;97422.78;30001;983;1880;-56
2022/07/07 01:55:03;;;;;;;;;;;;;;;14.92;55.06;97425.53;30001;983;1884;-56
2022/07/07 01:55:34;;;;;;;;;;;;;;;14.92;55.68;97422.78;30001;983;1879;-56
2022/07/07 01:56:05;;;;;;;;;;;;;;;14.92;55.80;97422.78;30001;971;1892;-56
2022/07/07 01:56:36;;;;;;;;;;;;;;;14.92;55.58;97420.88;30001;983;1871;-57
2022/07/07 01:57:08;;;;;;;;;;;;;;;14.91;55.13;97418.44;30001;983;1884;-56
2022/07/07 01:57:39;;;;;;;;;;;;;;;14.91;55.22;97423.91;30001;983;1880;-73
2022/07/07 01:58:10;;;;;;;;;;;;;;;14.91;55.41;97416.53;30001;983;1871;-57
2022/07/07 01:58:40;;;;;;;;;;;;;;;14.91;55.02;97418.44;30001;982;1871;-57
2022/07/07 01:59:12;;;;;;;;;;;;;;;14.90;55.60;97422.31;30001;982;1884;-57
2022/07/07 01:59:44;;;;;;;;;;;;;;;14.88;55.64;97416.34;30001;982;1867;-56
2022/07/07 02:00:16;;;;;;;;;;;;;;;14.89;55.49;97417.97;30001;982;1876;-56
2022/07/07 02:00:47;;;;;;;;;;;;;;;14.89;55.30;97416.03;30001;983;1879;-56
2022/07/07 02:01:18;;;;;;;;;;;;;;;14.89;55.88;97416.03;30001;983;1883;-56
2022/07/07 02:01:49;;;;;;;;;;;;;;;14.90;55.50;97419.59;30001;983;1879;-56
2022/07/07 02:02:20;;;;;;;;;;;;;;;14.90;55.42;97422.31;30001;983;1884;-57
2022/07/07 02:02:51;;;;;;;;;;;;;;;14.90;55.40;97422.31;30001;983;1880;-57
2022/07/07 02:03:22;;;;;;;;;;;;;;;14.90;56.36;97427.78;30001;983;1871;-57
2022/07/07 02:03:53;;;;;;;;;;;;;;;14.89;55.86;97426.16;30001;983;1871;-56
2022/07/07 02:04:24;;;;;;;;;;;;;;;14.87;55.15;97420.19;30001;983;1885;-56
2022/07/07 02:04:57;;;;;;;;;;;;;;;14.86;55.27;97416.66;30001;983;1819;-56
2022/07/07 02:05:27;;;;;;;;;;;;;;;14.86;55.36;97415.84;30001;983;1885;-56
2022/07/07 02:05:58;;;;;;;;;;;;;;;14.87;55.32;97417.47;30001;982;1880;-57
2022/07/07 02:06:29;;;;;;;;;;;;;;;14.89;55.04;97417.97;30001;982;1884;-56
2022/07/07 02:07:03;;;;;;;;;;;;;;;14.88;56.42;97421.81;30001;982;1867;-57
2022/07/07 02:07:35;;;;;;;;;;;;;;;14.89;56.11;97415.25;30001;982;1863;-71
2022/07/07 02:08:06;;;;;;;;;;;;;;;14.88;55.99;97422.63;30001;982;1881;-56
2022/07/07 02:08:37;;;;;;;;;;;;;;;14.88;55.10;97419.09;30001;983;1884;-57
2022/07/07 02:09:08;;;;;;;;;;;;;;;14.86;54.75;97413.12;30001;983;1880;-56
2022/07/07 02:09:39;;;;;;;;;;;;;;;14.85;54.79;97409.56;30001;983;1884;-56
2022/07/07 02:10:10;;;;;;;;;;;;;;;14.86;55.20;97411.19;30001;983;1880;-56
2022/07/07 02:11:30;;;;;;;;;;;;;;;14.88;55.36;97413.62;30001;974;1867;-56
2022/07/07 02:12:01;;;;;;;;;;;;;;;14.89;55.38;97410.59;30001;983;1875;-56
2022/07/07 02:12:33;;;;;;;;;;;;;;;14.89;54.98;97416.03;30001;983;1881;-56
2022/07/07 02:13:04;;;;;;;;;;;;;;;14.90;55.17;97411.38;30001;983;1884;-56
2022/07/07 02:13:35;;;;;;;;;;;;;;;14.90;54.97;97411.38;30001;982;1880;-57
2022/07/07 02:14:06;;;;;;;;;;;;;;;14.90;54.90;97408.66;30001;982;1884;-57
2022/07/07 02:14:38;;;;;;;;;;;;;;;14.90;55.62;97414.91;30001;982;1867;-56
2022/07/07 02:15:09;;;;;;;;;;;;;;;14.90;55.67;97419.59;30001;982;1876;-55
2022/07/07 02:15:40;;;;;;;;;;;;;;;14.89;56.32;97420.69;30001;982;1880;-57
2022/07/07 02:16:12;;;;;;;;;;;;;;;14.88;56.36;97413.62;30001;961;1906;-56
2022/07/07 02:16:43;;;;;;;;;;;;;;;14.88;56.13;97414.44;30001;983;1880;-55
2022/07/07 02:17:14;;;;;;;;;;;;;;;14.88;55.76;97413.62;30001;983;1884;-57
2022/07/07 02:17:45;;;;;;;;;;;;;;;14.88;55.16;97413.62;30001;983;1880;-56
2022/07/07 02:18:16;;;;;;;;;;;;;;;14.86;54.79;97410.37;30001;983;1871;-56
2022/07/07 02:18:48;;;;;;;;;;;;;;;14.87;55.27;97412.81;30001;983;1858;-56
2022/07/07 02:19:19;;;;;;;;;;;;;;;14.88;55.07;97413.62;30001;983;1885;-57
2022/07/07 02:19:50;;;;;;;;;;;;;;;14.88;55.14;97408.97;30001;983;1880;-56
2022/07/07 02:20:21;;;;;;;;;;;;;;;14.90;55.53;97416.84;30001;982;1884;-57
2022/07/07 02:20:52;;;;;;;;;;;;;;;14.90;55.75;97416.84;30001;982;1880;-55
2022/07/07 02:21:24;;;;;;;;;;;;;;;14.89;55.70;97415.25;30001;982;1884;-57
2022/07/07 02:21:55;;;;;;;;;;;;;;;14.90;55.78;97417.63;30001;982;1880;-56
2022/07/07 02:22:26;;;;;;;;;;;;;;;14.91;55.37;97412.97;30001;982;1885;-56
2022/07/07 02:22:57;;;;;;;;;;;;;;;14.90;55.63;97417.63;30001;982;1880;-55
2022/07/07 02:23:28;;;;;;;;;;;;;;;14.90;55.88;97416.84;30001;983;1884;-57
2022/07/07 02:23:59;;;;;;;;;;;;;;;14.91;55.89;97415.72;30001;983;1866;-56
2022/07/07 02:24:30;;;;;;;;;;;;;;;14.91;55.94;97416.53;30001;983;1875;-57
2022/07/07 02:25:01;;;;;;;;;;;;;;;14.91;56.03;97415.72;30001;983;1880;-57
2022/07/07 02:25:31;;;;;;;;;;;;;;;14.90;56.45;97423.09;30001;983;1884;-58
2022/07/07 02:26:02;;;;;;;;;;;;;;;14.89;56.32;97423.44;30001;983;1880;-56
2022/07/07 02:26:33;;;;;;;;;;;;;;;14.86;56.29;97426.78;30001;983;1884;-56
2022/07/07 02:27:04;;;;;;;;;;;;;;;14.85;56.33;97422.44;30001;983;1880;-56
2022/07/07 02:27:37;;;;;;;;;;;;;;;14.83;56.65;97428.19;30001;982;1884;-55
2022/07/07 02:28:07;;;;;;;;;;;;;;;14.82;56.34;97420.31;30001;982;1880;-55
2022/07/07 02:28:40;;;;;;;;;;;;;;;14.82;56.26;97428.50;30001;982;1884;-56
2022/07/07 02:29:11;;;;;;;;;;;;;;;14.83;56.22;97430.13;30001;982;1867;-71
2022/07/07 02:29:42;;;;;;;;;;;;;;;14.82;55.90;97421.12;30001;982;1876;-73
2022/07/07 02:30:16;;;;;;;;;;;;;;;14.82;56.46;97425.78;30001;982;1880;-73
2022/07/07 02:30:50;;;;;;;;;;;;;;;14.84;56.17;97426.28;30001;982;1885;-72
2022/07/07 02:31:21;;;;;;;;;;;;;;;14.81;56.46;97424.97;30001;983;1879;-73
2022/07/07 02:31:55;;;;;;;;;;;;;;;14.81;56.77;97418.69;30001;983;1884;-72
2022/07/07 02:32:26;;;;;;;;;;;;;;;14.79;56.07;97426.38;30001;983;1880;-68
2022/07/07 02:32:57;;;;;;;;;;;;;;;14.79;56.41;97426.38;30001;983;1884;-70
2022/07/07 02:33:29;;;;;;;;;;;;;;;14.80;56.03;97431.53;30001;983;1880;-72
2022/07/07 02:34:00;;;;;;;;;;;;;;;14.81;56.10;97424.16;30001;983;1884;-56
2022/07/07 02:34:31;;;;;;;;;;;;;;;14.82;56.68;97431.25;30001;983;1867;-57
2022/07/07 02:35:03;;;;;;;;;;;;;;;14.81;56.70;97424.97;30001;983;1875;-73
2022/07/07 02:35:34;;;;;;;;;;;;;;;14.81;56.17;97424.16;30001;982;1880;-56
2022/07/07 02:36:06;;;;;;;;;;;;;;;14.80;55.85;97423.34;30001;982;1884;-56
2022/07/07 02:36:40;;;;;;;;;;;;;;;14.77;56.11;97423.16;30001;982;1880;-73
2022/07/07 02:37:11;;;;;;;;;;;;;;;14.78;55.87;97419.31;30001;982;1871;-56
2022/07/07 02:37:42;;;;;;;;;;;;;;;14.77;56.27;97423.97;30001;982;1872;-56
2022/07/07 02:38:13;;;;;;;;;;;;;;;14.76;56.03;97427.81;30001;982;1885;-72
2022/07/07 02:38:46;;;;;;;;;;;;;;;14.72;55.73;97419.41;30001;983;1879;-73
2022/07/07 02:39:18;;;;;;;;;;;;;;;14.71;56.17;97419.72;30001;983;1884;-73
2022/07/07 02:39:51;;;;;;;;;;;;;;;14.68;55.83;97423.88;30001;983;1880;-74
2022/07/07 02:40:22;;;;;;;;;;;;;;;14.68;56.24;97420.31;30001;983;1884;-73
2022/07/07 02:40:54;;;;;;;;;;;;;;;14.67;56.30;97419.50;30001;983;1880;-55
2022/07/07 02:41:26;;;;;;;;;;;;;;;14.69;56.13;97421.94;30001;983;1871;-56
2022/07/07 02:41:56;;;;;;;;;;;;;;;14.68;56.17;97415.66;30001;983;1871;-56
2022/07/07 02:42:27;;;;;;;;;;;;;;;14.69;56.08;97422.75;30001;983;1884;-73
2022/07/07 02:42:59;;;;;;;;;;;;;;;14.71;56.34;97420.53;30001;982;1880;-56
2022/07/07 02:43:30;;;;;;;;;;;;;;;14.71;56.17;97426.00;30001;982;1884;-74
2022/07/07 02:44:01;;;;;;;;;;;;;;;14.72;56.14;97422.13;30001;987;1863;-55
2022/07/07 02:44:35;;;;;;;;;;;;;;;14.71;55.75;97431.44;30001;965;1888;-55
2022/07/07 02:45:06;;;;;;;;;;;;;;;14.71;56.17;97423.25;30001;982;1876;-56
2022/07/07 02:45:37;;;;;;;;;;;;;;;14.70;56.38;97423.56;30001;982;1867;-71
2022/07/07 02:46:08;;;;;;;;;;;;;;;14.68;56.12;97426.59;30001;983;1866;-73
2022/07/07 02:46:39;;;;;;;;;;;;;;;14.67;56.60;97422.25;30001;983;1879;-56
2022/07/07 02:47:09;;;;;;;;;;;;;;;14.65;56.36;97420.94;30001;983;1875;-56
2022/07/07 02:47:40;;;;;;;;;;;;;;;14.64;56.11;97428.31;30001;983;1880;-70
2022/07/07 02:48:13;;;;;;;;;;;;;;;14.64;56.15;97422.84;30001;983;1875;-56
2022/07/07 02:48:43;;;;;;;;;;;;;;;14.64;56.72;97424.78;30001;983;1880;-56